Time;durP1;ratioP1;P1;durP2;ratioP2;P2;SDS_P1;SDS_P2;PMS_P1;PMS_P2;Temp;Humidity;BMP_temperature;BMP_pressure;BME280_temperature;BME280_humidity;BME280_pressure;Samples;Min_cycle;Max_cycle;Signal;HPM_P1;HPM_P2
2023/08/21 00:02:25;;;;;;;6.15;4.93;;;21.10;1.00;;;;;;5018042;28;20198;-81
2023/08/21 00:04:51;;;;;;;5.72;4.40;;;21.20;1.00;;;;;;5035397;28;20171;-81
2023/08/21 00:07:16;;;;;;;5.13;4.63;;;21.20;1.00;;;;;;5035439;28;20277;-81
2023/08/21 00:09:42;;;;;;;5.20;4.70;;;21.20;1.00;;;;;;5017999;28;20175;-81
2023/08/21 00:12:08;;;;;;;5.93;4.40;;;21.20;1.00;;;;;;5017599;28;20265;-81
2023/08/21 00:14:34;;;;;;;5.80;5.20;;;21.30;1.00;;;;;;5017521;28;20185;-81
2023/08/21 00:16:59;;;;;;;5.10;4.60;;;21.20;1.00;;;;;;5035326;28;20179;-81
2023/08/21 00:19:25;;;;;;;5.30;4.80;;;21.10;1.00;;;;;;5017391;28;20202;-82
2023/08/21 00:21:51;;;;;;;6.90;5.15;;;21.10;1.00;;;;;;5035103;28;20688;-82
2023/08/21 00:24:17;;;;;;;7.10;5.47;;;21.10;1.00;;;;;;5017094;28;20183;-82
2023/08/21 00:26:42;;;;;;;6.45;4.78;;;21.10;1.00;;;;;;5017157;28;20181;-82
2023/08/21 00:29:08;;;;;;;8.43;5.93;;;21.10;1.00;;;;;;5017457;28;20202;-82
2023/08/21 00:31:34;;;;;;;5.93;5.07;;;21.10;1.00;;;;;;5036725;28;20466;-81
2023/08/21 00:33:59;;;;;;;6.25;5.20;;;21.00;1.00;;;;;;5035438;28;20547;-81
2023/08/21 00:36:25;;;;;;;5.88;4.85;;;21.00;1.00;;;;;;5035546;28;20214;-81
2023/08/21 00:38:50;;;;;;;6.22;5.00;;;20.90;44.20;;;;;;5017861;28;20748;-81
2023/08/21 00:41:16;;;;;;;8.15;5.47;;;20.80;99.90;;;;;;5017547;28;20287;-81
2023/08/21 00:43:41;;;;;;;5.90;5.40;;;20.80;99.90;;;;;;5017422;28;20213;-81
2023/08/21 00:46:07;;;;;;;5.32;4.65;;;20.70;99.90;;;;;;5035193;28;20174;-81
2023/08/21 00:48:33;;;;;;;6.97;5.00;;;20.70;99.90;;;;;;5017833;28;20601;-81
2023/08/21 00:50:59;;;;;;;5.90;5.20;;;20.70;99.90;;;;;;5035280;28;20175;-81
2023/08/21 00:53:25;;;;;;;5.80;5.38;;;20.70;99.90;;;;;;5017198;28;20716;-81
2023/08/21 00:55:51;;;;;;;5.57;5.00;;;20.70;99.90;;;;;;5017342;28;20190;-81
2023/08/21 00:58:17;;;;;;;6.03;5.53;;;20.70;99.90;;;;;;5017281;28;20199;-82
2023/08/21 01:00:45;;;;;;;8.13;5.47;;;20.60;99.90;;;;;;5034666;28;20190;-81
2023/08/21 01:03:11;;;;;;;5.65;5.15;;;20.50;99.90;;;;;;5034933;28;20207;-81
2023/08/21 01:05:36;;;;;;;6.35;5.68;;;20.50;99.90;;;;;;5035153;28;20258;-81
2023/08/21 01:08:11;;;;;;;6.57;5.53;;;20.50;99.90;;;;;;5016999;28;20195;-81
2023/08/21 01:10:48;;;;;;;7.28;5.95;;;20.50;1.00;;;;;;5035119;28;20601;-81
2023/08/21 01:13:39;;;;;;;5.90;5.40;;;20.40;1.00;;;;;;5016894;28;20286;-80
2023/08/21 01:16:07;;;;;;;6.18;5.57;;;20.30;1.00;;;;;;5034013;28;20190;-81
2023/08/21 01:18:34;;;;;;;6.22;5.63;;;20.30;1.00;;;;;;5016814;28;20203;-81
2023/08/21 01:21:03;;;;;;;6.05;5.50;;;20.30;1.00;;;;;;5034788;28;20175;-81
2023/08/21 01:23:32;;;;;;;5.50;5.00;;;20.30;99.90;;;;;;5016695;28;20195;-81
2023/08/21 01:25:58;;;;;;;6.22;5.63;;;20.20;99.90;;;;;;5016695;28;20202;-81
2023/08/21 01:28:24;;;;;;;8.98;6.07;;;20.10;1.00;;;;;;5034357;28;20672;-81
2023/08/21 01:30:53;;;;;;;6.97;5.55;;;20.20;99.90;;;;;;5034509;28;20203;-81
2023/08/21 01:33:20;;;;;;;6.72;5.85;;;20.20;99.90;;;;;;5034435;28;20175;-81
2023/08/21 01:35:47;;;;;;;7.03;6.43;;;20.10;1.00;;;;;;5016881;28;20182;-82
2023/08/21 01:38:12;;;;;;;7.13;6.15;;;20.00;1.00;;;;;;5034332;28;20195;-81
2023/08/21 01:40:39;;;;;;;6.97;6.28;;;20.00;68.70;;;;;;5016649;28;20660;-81
2023/08/21 01:43:05;;;;;;;6.95;6.18;;;19.90;99.90;;;;;;5033927;28;20202;-82
2023/08/21 01:45:30;;;;;;;7.13;6.47;;;19.80;99.90;;;;;;5034097;28;20201;-81
2023/08/21 01:47:56;;;;;;;7.50;6.40;;;19.80;99.90;;;;;;5033883;28;20199;-81
2023/08/21 01:50:21;;;;;;;7.10;6.28;;;19.80;99.90;;;;;;5033968;28;20178;-81
2023/08/21 01:52:47;;;;;;;7.57;6.78;;;19.90;1.00;;;;;;5016148;28;20182;-81
2023/08/21 01:55:13;;;;;;;8.07;6.38;;;19.90;99.90;;;;;;5033688;28;20218;-81
2023/08/21 01:57:38;;;;;;;7.03;6.38;;;19.80;99.90;;;;;;5033717;28;20237;-81
2023/08/21 02:00:05;;;;;;;7.45;6.72;;;19.70;1.00;;;;;;5016243;28;20203;-81
2023/08/21 02:02:31;;;;;;;7.90;7.10;;;19.70;1.00;;;;;;5015962;28;20297;-81
2023/08/21 02:04:56;;;;;;;8.00;6.03;;;19.80;1.00;;;;;;5015970;28;20624;-81
2023/08/21 02:07:22;;;;;;;6.65;6.05;;;19.90;1.00;;;;;;5033846;28;20205;-81
2023/08/21 02:09:47;;;;;;;7.80;6.13;;;19.90;1.00;;;;;;5015917;28;20547;-81
2023/08/21 02:12:13;;;;;;;6.32;5.53;;;19.90;1.00;;;;;;5015080;28;20186;-81
2023/08/21 02:14:38;;;;;;;6.38;5.78;;;19.90;1.00;;;;;;5015975;28;20630;-81
2023/08/21 02:17:05;;;;;;;6.88;6.18;;;19.90;1.00;;;;;;5015802;28;20191;-81
2023/08/21 02:19:31;;;;;;;7.45;6.63;;;19.90;1.00;;;;;;5033491;28;20222;-83
2023/08/21 02:21:56;;;;;;;6.97;6.20;;;19.90;1.00;;;;;;5033701;28;20273;-81
2023/08/21 02:24:22;;;;;;;6.75;6.15;;;19.90;99.90;;;;;;5015582;28;20537;-82
2023/08/21 02:26:47;;;;;;;6.80;5.60;;;19.90;1.00;;;;;;5033303;28;20286;-81
2023/08/21 02:29:13;;;;;;;7.47;6.05;;;19.90;1.00;;;;;;5015689;28;20736;-81
2023/08/21 02:31:38;;;;;;;6.20;5.60;;;19.80;1.00;;;;;;5033612;28;20519;-81
2023/08/21 02:34:05;;;;;;;6.57;5.97;;;19.80;99.90;;;;;;5032966;28;20179;-81
2023/08/21 02:36:30;;;;;;;8.98;7.18;;;19.80;99.90;;;;;;5033035;28;20170;-81
2023/08/21 02:38:56;;;;;;;10.55;6.13;;;19.90;99.90;;;;;;5015080;28;20622;-81
2023/08/21 02:41:21;;;;;;;7.00;6.30;;;19.90;11.20;;;;;;5032786;28;20696;-81
2023/08/21 02:43:47;;;;;;;7.47;6.03;;;19.90;99.90;;;;;;5014801;28;20246;-81
2023/08/21 02:46:13;;;;;;;8.05;6.07;;;19.80;4.50;;;;;;5014788;28;20225;-81
2023/08/21 02:48:38;;;;;;;7.53;6.72;;;19.70;99.90;;;;;;5032588;28;20316;-81
2023/08/21 02:51:04;;;;;;;6.82;6.28;;;19.40;27.40;;;;;;5015093;28;20644;-81
2023/08/21 02:53:29;;;;;;;8.60;6.88;;;19.20;47.70;;;;;;5032496;28;20240;-81
2023/08/21 02:55:55;;;;;;;7.45;6.78;;;19.10;99.90;;;;;;5014788;28;20207;-81
2023/08/21 02:58:20;;;;;;;6.68;6.18;;;19.10;1.00;;;;;;5032524;28;20205;-81
2023/08/21 03:00:46;;;;;;;7.50;6.75;;;19.10;1.00;;;;;;5032582;28;20175;-82
2023/08/21 03:03:11;;;;;;;7.43;6.72;;;19.10;1.00;;;;;;5014636;28;20302;-81
2023/08/21 03:05:37;;;;;;;7.45;6.03;;;19.20;77.60;;;;;;5032260;28;20603;-81
2023/08/21 03:08:03;;;;;;;7.32;6.72;;;19.30;98.50;;;;;;5032514;28;20191;-81
2023/08/21 03:10:33;;;;;;;7.57;6.70;;;19.20;1.00;;;;;;5014581;28;20175;-81
2023/08/21 03:12:59;;;;;;;7.43;6.57;;;19.20;99.90;;;;;;5014758;28;20183;-81
2023/08/21 03:15:24;;;;;;;7.93;7.18;;;19.10;1.00;;;;;;5032404;28;20201;-81
2023/08/21 03:17:50;;;;;;;7.22;6.53;;;19.00;99.90;;;;;;5014606;28;20676;-81
2023/08/21 03:20:17;;;;;;;7.32;6.72;;;18.90;1.00;;;;;;5032515;28;20197;-81
2023/08/21 03:22:43;;;;;;;7.60;6.90;;;18.90;99.90;;;;;;5014178;28;20208;-81
2023/08/21 03:25:09;;;;;;;7.10;6.43;;;18.90;99.90;;;;;;5032164;28;20183;-81
2023/08/21 03:27:39;;;;;;;9.32;7.78;;;18.80;20.30;;;;;;5014416;28;20206;-81
2023/08/21 03:30:08;;;;;;;8.65;7.80;;;18.60;1.00;;;;;;5014482;28;20656;-81
2023/08/21 03:32:33;;;;;;;7.72;7.03;;;18.50;1.00;;;;;;5014217;28;20186;-82
2023/08/21 03:34:59;;;;;;;8.23;7.45;;;18.50;99.90;;;;;;5014403;28;20175;-82
2023/08/21 03:37:24;;;;;;;8.07;7.25;;;18.50;99.90;;;;;;5014329;28;20644;-82
2023/08/21 03:39:50;;;;;;;7.78;7.07;;;18.50;1.00;;;;;;5014998;28;20198;-81
2023/08/21 03:42:16;;;;;;;8.55;7.60;;;18.50;1.00;;;;;;5014988;28;20211;-81
2023/08/21 03:44:42;;;;;;;8.20;7.43;;;18.50;1.00;;;;;;5032770;28;20214;-81
2023/08/21 03:47:07;;;;;;;8.15;7.40;;;18.60;1.00;;;;;;5015186;28;20647;-82
2023/08/21 03:49:33;;;;;;;7.75;7.10;;;18.50;1.00;;;;;;5015008;28;20727;-81
2023/08/21 03:51:58;;;;;;;8.15;6.70;;;18.50;99.90;;;;;;5032708;28;20200;-81
2023/08/21 03:54:24;;;;;;;7.40;6.65;;;18.60;1.00;;;;;;5014767;28;20179;-81
2023/08/21 03:56:50;;;;;;;8.05;7.18;;;18.70;99.90;;;;;;5032145;28;20668;-81
2023/08/21 03:59:15;;;;;;;7.53;6.78;;;18.70;1.00;;;;;;5014841;28;20238;-81
2023/08/21 04:01:41;;;;;;;7.03;6.40;;;18.60;1.00;;;;;;5032342;28;20206;-81
2023/08/21 04:04:06;;;;;;;7.22;6.63;;;18.60;1.00;;;;;;5032298;28;20175;-81
2023/08/21 04:06:32;;;;;;;7.75;7.13;;;18.60;99.90;;;;;;5014655;28;20175;-81
2023/08/21 04:08:58;;;;;;;8.55;7.35;;;18.60;99.90;;;;;;5014641;28;20240;-81
2023/08/21 04:11:23;;;;;;;6.72;6.22;;;18.50;99.90;;;;;;5032461;28;20249;-82
2023/08/21 04:13:49;;;;;;;7.95;7.15;;;18.60;99.90;;;;;;5032796;28;20548;-81
2023/08/21 04:16:15;;;;;;;7.35;6.43;;;18.70;99.90;;;;;;5032472;28;20190;-81
2023/08/21 04:18:41;;;;;;;8.13;6.50;;;18.80;1.00;;;;;;5032265;28;20202;-81
2023/08/21 04:21:07;;;;;;;6.85;6.25;;;18.80;1.00;;;;;;5014476;28;20183;-81
2023/08/21 04:23:32;;;;;;;8.20;7.25;;;18.80;99.90;;;;;;5014371;28;20664;-81
2023/08/21 04:26:02;;;;;;;7.00;6.38;;;19.00;99.90;;;;;;5013965;28;20233;-81
2023/08/21 04:28:30;;;;;;;7.65;6.88;;;18.80;99.90;;;;;;5014392;28;20206;-81
2023/08/21 04:30:57;;;;;;;7.55;6.95;;;18.80;94.30;;;;;;5014147;28;20664;-81
2023/08/21 04:33:27;;;;;;;6.97;5.78;;;18.80;99.90;;;;;;5014174;28;20712;-81
2023/08/21 04:35:53;;;;;;;7.72;7.00;;;18.80;99.90;;;;;;5035076;28;20615;-81
2023/08/21 04:38:18;;;;;;;7.15;6.47;;;18.60;99.90;;;;;;5035603;28;20195;-81
2023/08/21 04:40:44;;;;;;;6.63;6.03;;;18.90;14.30;;;;;;5017422;28;20191;-81
2023/08/21 04:43:10;;;;;;;7.30;6.57;;;18.90;35.90;;;;;;5017162;28;20261;-81
2023/08/21 04:45:37;;;;;;;7.63;6.82;;;19.00;1.00;;;;;;5035292;28;20193;-82
2023/08/21 04:48:06;;;;;;;7.68;6.90;;;19.00;99.90;;;;;;5035448;28;20282;-81
2023/08/21 04:50:31;;;;;;;8.75;7.00;;;18.80;1.00;;;;;;5035288;28;20236;-82
2023/08/21 04:52:57;;;;;;;8.07;6.45;;;18.90;99.90;;;;;;5035174;28;20265;-81
2023/08/21 04:55:23;;;;;;;8.05;6.82;;;19.20;99.90;;;;;;5035081;28;20174;-81
2023/08/21 04:57:49;;;;;;;7.60;6.80;;;18.90;99.90;;;;;;5017273;28;20207;-81
2023/08/21 05:00:15;;;;;;;8.38;6.80;;;18.80;1.00;;;;;;5017288;28;20266;-81
2023/08/21 05:02:41;;;;;;;8.27;7.40;;;18.90;1.00;;;;;;5017044;28;20202;-81
2023/08/21 05:05:08;;;;;;;7.22;6.28;;;18.90;11.10;;;;;;5016841;28;20178;-81
2023/08/21 05:07:34;;;;;;;8.35;6.50;;;19.00;1.00;;;;;;5035081;28;20282;-81
2023/08/21 05:10:00;;;;;;;6.80;6.20;;;19.00;1.00;;;;;;5035106;28;20741;-81
2023/08/21 05:12:26;;;;;;;8.15;6.50;;;19.10;1.00;;;;;;5017419;28;20182;-81
2023/08/21 05:14:52;;;;;;;8.48;6.68;;;19.10;1.00;;;;;;5034840;28;20699;-81
2023/08/21 05:17:17;;;;;;;7.57;6.28;;;19.10;1.00;;;;;;5034851;28;20202;-82
2023/08/21 05:19:43;;;;;;;8.23;6.07;;;19.30;1.00;;;;;;5035379;28;20214;-81
2023/08/21 05:22:08;;;;;;;9.90;6.80;;;19.30;1.00;;;;;;5016736;28;20245;-81
2023/08/21 05:24:34;;;;;;;6.30;5.78;;;19.40;1.00;;;;;;5016763;28;20708;-81
2023/08/21 05:26:59;;;;;;;6.78;5.45;;;19.40;1.00;;;;;;5016762;28;20640;-81
2023/08/21 05:29:25;;;;;;;5.93;5.43;;;19.40;1.00;;;;;;5034566;28;20191;-82
2023/08/21 05:31:51;;;;;;;6.68;5.07;;;19.50;1.00;;;;;;5016806;28;20183;-81
2023/08/21 05:34:16;;;;;;;7.28;5.10;;;19.80;99.90;;;;;;5016759;28;20584;-82
2023/08/21 05:36:42;;;;;;;12.98;5.35;;;20.00;44.80;;;;;;5016704;28;20182;-82
2023/08/21 05:39:08;;;;;;;38.20;7.28;;;20.40;1.00;;;;;;5016558;28;20202;-81
2023/08/21 05:41:33;;;;;;;10.40;5.20;;;20.70;1.00;;;;;;5016581;28;20187;-82
2023/08/21 05:43:59;;;;;;;9.35;5.00;;;20.90;99.90;;;;;;5033963;28;20281;-81
2023/08/21 05:46:24;;;;;;;10.05;4.80;;;20.90;99.90;;;;;;5034119;28;20175;-81
2023/08/21 05:48:50;;;;;;;6.72;4.82;;;20.90;99.90;;;;;;5016360;28;20202;-81
2023/08/21 05:51:16;;;;;;;9.40;4.97;;;20.90;99.90;;;;;;5016377;28;20175;-82
2023/08/21 05:53:41;;;;;;;6.03;4.80;;;21.00;99.90;;;;;;5034029;28;20524;-81
2023/08/21 05:56:07;;;;;;;8.73;5.97;;;20.90;99.90;;;;;;5016159;28;20179;-81
2023/08/21 05:58:32;;;;;;;6.25;5.00;;;21.10;99.90;;;;;;5033884;28;20237;-82
2023/08/21 06:00:59;;;;;;;7.22;5.30;;;21.30;99.90;;;;;;5016422;28;20191;-81
2023/08/21 06:03:24;;;;;;;6.07;4.93;;;21.50;99.90;;;;;;5033375;28;20199;-81
2023/08/21 06:05:50;;;;;;;6.72;5.03;;;21.70;99.90;;;;;;5033757;28;20647;-81
2023/08/21 06:08:16;;;;;;;7.82;5.10;;;21.80;99.90;;;;;;5033831;28;20731;-81
2023/08/21 06:10:41;;;;;;;7.50;5.28;;;21.80;75.00;;;;;;5033960;28;20238;-82
2023/08/21 06:13:08;;;;;;;5.78;5.22;;;21.70;99.90;;;;;;5033358;28;20182;-81
2023/08/21 06:15:33;;;;;;;5.78;5.22;;;21.60;99.90;;;;;;5016022;28;20550;-82
2023/08/21 06:18:00;;;;;;;6.40;4.95;;;21.50;99.90;;;;;;5015679;28;20197;-81
2023/08/21 06:20:26;;;;;;;6.32;4.60;;;22.30;58.10;;;;;;5015532;28;20214;-81
2023/08/21 06:22:51;;;;;;;4.38;3.90;;;23.80;1.00;;;;;;5015260;28;20288;-81
2023/08/21 06:25:19;;;;;;;6.40;4.05;;;25.50;1.00;;;;;;5015295;28;20174;-82
2023/08/21 06:27:44;;;;;;;5.10;4.18;;;27.10;99.90;;;;;;5033312;28;20190;-82
2023/08/21 06:30:10;;;;;;;4.75;3.70;;;27.90;99.90;;;;;;5033164;28;20171;-81
2023/08/21 06:32:36;;;;;;;5.63;3.63;;;29.00;99.90;;;;;;5033148;28;20183;-82
2023/08/21 06:35:01;;;;;;;5.03;3.60;;;29.90;99.90;;;;;;5015213;28;20183;-82
2023/08/21 06:37:27;;;;;;;6.10;5.05;;;30.70;99.90;;;;;;5015327;28;20183;-81
2023/08/21 06:39:53;;;;;;;5.43;5.03;;;30.90;58.70;;;;;;5032996;28;20694;-82
2023/08/21 06:42:18;;;;;;;3.95;3.55;;;30.20;52.10;;;;;;5015261;28;20211;-81
2023/08/21 06:44:44;;;;;;;5.60;3.83;;;30.70;1.00;;;;;;5015415;28;20175;-81
2023/08/21 06:47:09;;;;;;;6.13;3.92;;;30.10;1.00;;;;;;5015063;28;20182;-81
2023/08/21 06:49:35;;;;;;;4.72;4.30;;;31.50;54.10;;;;;;5032908;28;20180;-82
2023/08/21 06:52:02;;;;;;;6.03;3.70;;;32.20;36.10;;;;;;5032847;28;20175;-82
2023/08/21 06:54:28;;;;;;;5.47;4.13;;;32.00;1.00;;;;;;5032535;28;20258;-82
2023/08/21 06:56:53;;;;;;;3.83;3.40;;;32.50;1.00;;;;;;5033146;28;20210;-82
2023/08/21 06:59:19;;;;;;;4.78;3.38;;;33.00;1.00;;;;;;5033274;28;20233;-82
2023/08/21 07:01:45;;;;;;;5.20;4.57;;;33.40;1.00;;;;;;5015565;28;20178;-82
2023/08/21 07:04:10;;;;;;;4.65;4.15;;;33.50;1.00;;;;;;5015262;28;20198;-82
2023/08/21 07:06:36;;;;;;;4.78;4.32;;;33.60;1.00;;;;;;5033120;28;20305;-82
2023/08/21 07:09:02;;;;;;;4.20;3.80;;;33.10;1.00;;;;;;5033303;28;20718;-84
2023/08/21 07:11:27;;;;;;;5.80;4.00;;;33.50;1.00;;;;;;5015504;28;20179;-82
2023/08/21 07:13:53;;;;;;;5.82;4.63;;;32.60;1.00;;;;;;5015041;28;20183;-82
2023/08/21 07:16:19;;;;;;;5.07;4.22;;;30.10;1.00;;;;;;5032745;28;20238;-82
2023/08/21 07:18:44;;;;;;;4.85;4.38;;;28.60;1.00;;;;;;5032932;28;20222;-81
2023/08/21 07:21:10;;;;;;;5.60;4.70;;;27.00;1.00;;;;;;5033673;28;20185;-81
2023/08/21 07:23:35;;;;;;;5.82;4.00;;;25.50;1.00;;;;;;5015056;28;20241;-81
2023/08/21 07:26:02;;;;;;;5.63;4.30;;;25.00;1.00;;;;;;5033070;28;20187;-83
2023/08/21 07:28:27;;;;;;;4.47;4.03;;;24.70;1.00;;;;;;5015653;28;20849;-81
2023/08/21 07:31:00;;;;;;;4.30;3.50;;;24.50;1.00;;;;;;5015118;28;20267;-81
2023/08/21 07:33:26;;;;;;;7.95;4.32;;;24.30;1.00;;;;;;5032587;28;20179;-81
2023/08/21 07:36:03;;;;;;;5.65;3.78;;;24.20;1.00;;;;;;5032763;28;20661;-82
2023/08/21 07:38:29;;;;;;;7.20;4.28;;;24.20;1.00;;;;;;5015312;28;20198;-81
2023/08/21 07:41:10;;;;;;;3.85;3.38;;;24.20;1.00;;;;;;5015627;28;20194;-81
2023/08/21 07:43:37;;;;;;;4.13;3.38;;;24.40;8.70;;;;;;5015626;28;20253;-82
2023/08/21 07:46:07;;;;;;;4.70;3.28;;;24.50;1.00;;;;;;5015485;28;20184;-81
2023/08/21 07:48:33;;;;;;;4.13;3.10;;;24.60;1.00;;;;;;5015778;28;20195;-82
2023/08/21 07:50:59;;;;;;;5.13;3.00;;;25.00;1.00;;;;;;5015637;28;20186;-81
2023/08/21 07:53:26;;;;;;;3.83;2.58;;;25.10;1.00;;;;;;5015687;28;20260;-81
2023/08/21 07:55:52;;;;;;;5.15;3.10;;;25.10;1.00;;;;;;5032644;28;20179;-81
2023/08/21 07:58:18;;;;;;;4.95;2.80;;;24.70;1.00;;;;;;5015088;28;20202;-81
2023/08/21 08:00:44;;;;;;;4.93;2.00;;;24.40;1.00;;;;;;5014984;28;20185;-81
2023/08/21 08:03:10;;;;;;;5.85;2.25;;;24.00;1.00;;;;;;5014806;28;20207;-81
2023/08/21 08:05:37;;;;;;;3.05;1.80;;;23.80;1.00;;;;;;5015108;28;20178;-81
2023/08/21 08:08:03;;;;;;;4.18;1.77;;;24.00;1.00;;;;;;5015012;28;20202;-81
2023/08/21 08:10:28;;;;;;;4.97;2.10;;;24.20;1.00;;;;;;5035563;28;20171;-81
2023/08/21 08:12:54;;;;;;;5.40;2.40;;;24.20;1.00;;;;;;5018763;28;20181;-81
2023/08/21 08:15:21;;;;;;;2.38;1.70;;;24.20;1.00;;;;;;5036690;28;20179;-82
2023/08/21 08:17:46;;;;;;;2.28;1.58;;;24.10;1.00;;;;;;5020130;28;20614;-82
2023/08/21 08:20:13;;;;;;;2.65;1.70;;;24.20;1.00;;;;;;5021261;28;20183;-82
2023/08/21 08:22:39;;;;;;;2.58;1.85;;;24.50;1.00;;;;;;5019498;28;20210;-81
2023/08/21 08:25:08;;;;;;;4.00;2.00;;;24.70;1.00;;;;;;5018824;28;20179;-81
2023/08/21 08:27:34;;;;;;;3.53;2.17;;;24.70;1.00;;;;;;5036368;28;20563;-80
2023/08/21 08:30:00;;;;;;;4.18;2.60;;;24.30;1.00;;;;;;5018006;28;20171;-81
2023/08/21 08:32:26;;;;;;;4.03;1.70;;;24.20;1.00;;;;;;5018318;28;20190;-80
2023/08/21 08:34:52;;;;;;;2.95;1.80;;;24.40;1.00;;;;;;5019376;28;20183;-81
2023/08/21 08:37:18;;;;;;;3.85;1.80;;;24.90;1.00;;;;;;5018559;28;20661;-80
2023/08/21 08:39:45;;;;;;;3.10;1.70;;;24.90;1.00;;;;;;5018347;28;20202;-80
2023/08/21 08:42:11;;;;;;;3.33;1.70;;;24.70;1.00;;;;;;5018520;28;20199;-80
2023/08/21 08:44:38;;;;;;;5.53;1.90;;;24.60;1.00;;;;;;5036733;28;20171;-82
2023/08/21 08:47:04;;;;;;;3.08;1.67;;;25.10;1.00;;;;;;5019694;28;20175;-82
2023/08/21 08:49:31;;;;;;;2.47;1.60;;;25.30;1.00;;;;;;5020564;28;20258;-82
2023/08/21 08:51:58;;;;;;;2.97;1.45;;;25.20;1.00;;;;;;5020077;28;20201;-81
2023/08/21 08:54:25;;;;;;;3.63;1.60;;;24.70;1.00;;;;;;5018035;28;20183;-80
2023/08/21 08:56:51;;;;;;;3.95;1.80;;;24.70;1.00;;;;;;5018018;28;20179;-81
2023/08/21 08:59:17;;;;;;;2.47;1.55;;;24.80;1.00;;;;;;5017965;28;20248;-81
2023/08/21 09:01:43;;;;;;;2.90;1.55;;;25.10;1.00;;;;;;5018140;28;20179;-81
2023/08/21 09:04:09;;;;;;;3.47;1.70;;;25.30;1.00;;;;;;5018527;28;20669;-81
2023/08/21 09:06:34;;;;;;;3.60;1.67;;;25.40;1.00;;;;;;5018054;28;20648;-81
2023/08/21 09:09:00;;;;;;;5.03;1.50;;;25.40;1.00;;;;;;5035951;28;20554;-81
2023/08/21 09:11:26;;;;;;;3.50;1.33;;;25.70;1.00;;;;;;5018032;28;20183;-82
2023/08/21 09:13:53;;;;;;;2.72;1.40;;;26.00;1.00;;;;;;5017821;28;20571;-82
2023/08/21 09:16:20;;;;;;;3.95;2.13;;;26.40;1.00;;;;;;5017297;28;20250;-82
2023/08/21 09:18:50;;;;;;;3.15;1.88;;;26.00;1.00;;;;;;5017455;28;20261;-82
2023/08/21 09:21:17;;;;;;;5.07;2.00;;;25.90;1.00;;;;;;5017602;28;20179;-81
2023/08/21 09:23:43;;;;;;;2.67;1.90;;;25.50;1.00;;;;;;5018601;28;20207;-81
2023/08/21 09:26:09;;;;;;;4.82;2.20;;;25.80;1.00;;;;;;5017302;28;20229;-81
2023/08/21 09:28:35;;;;;;;3.35;1.90;;;25.90;1.00;;;;;;5035254;28;20187;-82
2023/08/21 09:31:02;;;;;;;2.97;1.63;;;26.00;1.00;;;;;;5017788;28;20266;-82
2023/08/21 09:33:28;;;;;;;3.70;1.40;;;25.90;1.00;;;;;;5017354;28;20183;-82
2023/08/21 09:35:54;;;;;;;3.22;1.50;;;25.50;1.00;;;;;;5035198;28;20201;-82
2023/08/21 09:38:20;;;;;;;4.00;1.65;;;25.10;1.00;;;;;;5035199;28;20195;-81
2023/08/21 09:40:53;;;;;;;3.72;1.95;;;25.10;1.00;;;;;;5035105;28;20282;-81
2023/08/21 09:43:21;;;;;;;3.67;2.00;;;25.10;1.00;;;;;;5034958;28;20206;-82
2023/08/21 09:45:48;;;;;;;6.38;2.00;;;25.00;1.00;;;;;;5035259;28;20171;-81
2023/08/21 09:48:14;;;;;;;4.78;2.10;;;25.20;1.00;;;;;;5035117;28;20194;-81
2023/08/21 09:50:40;;;;;;;4.25;2.35;;;25.40;1.00;;;;;;5034804;28;20596;-81
2023/08/21 09:53:09;;;;;;;4.90;2.42;;;25.10;1.00;;;;;;5016720;28;20230;-81
2023/08/21 09:55:35;;;;;;;4.18;2.05;;;25.40;1.00;;;;;;5034572;28;20220;-82
2023/08/21 09:58:02;;;;;;;3.00;1.50;;;25.70;1.00;;;;;;5034923;28;20574;-82
2023/08/21 10:00:37;;;;;;;4.13;2.22;;;25.90;1.00;;;;;;5034862;28;20670;-81
2023/08/21 10:03:07;;;;;;;3.38;2.25;;;26.20;1.00;;;;;;5016892;28;20203;-81
2023/08/21 10:05:37;;;;;;;3.50;2.30;;;26.30;1.00;;;;;;5034656;28;20178;-81
2023/08/21 10:08:05;;;;;;;4.78;2.40;;;26.00;1.00;;;;;;5034536;28;20194;-82
2023/08/21 10:10:48;;;;;;;5.45;2.10;;;26.00;1.00;;;;;;5035104;28;20221;-82
2023/08/21 10:13:14;;;;;;;3.35;1.67;;;25.60;1.00;;;;;;5017122;28;20232;-81
2023/08/21 10:15:41;;;;;;;2.70;1.73;;;25.50;1.00;;;;;;5017944;28;20183;-81
2023/08/21 10:18:20;;;;;;;4.47;1.75;;;25.50;1.00;;;;;;5017519;28;20234;-81
2023/08/21 10:20:46;;;;;;;2.70;1.65;;;25.40;1.00;;;;;;5017666;28;20550;-81
2023/08/21 10:23:30;;;;;;;3.08;1.65;;;25.40;1.00;;;;;;5017451;28;20207;-80
2023/08/21 10:26:01;;;;;;;3.17;1.60;;;25.40;1.00;;;;;;5034813;28;20175;-81
2023/08/21 10:28:52;;;;;;;4.57;1.98;;;25.20;1.00;;;;;;5016958;28;20253;-81
2023/08/21 10:31:28;;;;;;;3.88;1.70;;;24.70;1.00;;;;;;5019010;28;20183;-80
2023/08/21 10:33:54;;;;;;;4.30;1.80;;;24.50;1.00;;;;;;5017117;28;20175;-82
2023/08/21 10:36:44;;;;;;;4.38;1.63;;;24.50;1.00;;;;;;5017118;28;20206;-82
2023/08/21 10:39:24;;;;;;;4.75;1.90;;;24.80;1.00;;;;;;5017570;28;20575;-82
2023/08/21 10:41:56;;;;;;;4.07;2.10;;;25.10;1.00;;;;;;5035307;28;20649;-82
2023/08/21 10:44:48;;;;;;;4.43;2.00;;;25.50;1.00;;;;;;5017698;28;20265;-81
2023/08/21 10:47:17;;;;;;;4.05;1.70;;;25.50;1.00;;;;;;5017767;28;20258;-81
2023/08/21 10:49:47;;;;;;;3.45;1.77;;;25.70;1.00;;;;;;5017528;28;20179;-82
2023/08/21 10:52:14;;;;;;;3.38;1.70;;;25.30;1.00;;;;;;5017083;28;20229;-82
2023/08/21 10:54:44;;;;;;;5.75;1.80;;;25.40;1.00;;;;;;5035809;28;20171;-82
2023/08/21 10:57:10;;;;;;;5.55;2.10;;;25.60;1.00;;;;;;5017265;28;20183;-82
2023/08/21 10:59:36;;;;;;;3.40;1.70;;;25.90;1.00;;;;;;5017965;28;20179;-81
2023/08/21 11:02:01;;;;;;;3.47;1.65;;;26.10;1.00;;;;;;5017228;28;20183;-81
2023/08/21 11:04:27;;;;;;;4.93;1.70;;;26.30;1.00;;;;;;5017226;28;20204;-81
2023/08/21 11:06:52;;;;;;;2.30;1.40;;;26.20;1.00;;;;;;5034951;28;20694;-81
2023/08/21 11:09:18;;;;;;;5.13;1.88;;;26.40;1.00;;;;;;5017422;28;20191;-81
2023/08/21 11:11:44;;;;;;;7.30;3.50;;;26.80;1.00;;;;;;5017546;28;20175;-82
2023/08/21 11:14:10;;;;;;;6.50;1.90;;;27.20;1.00;;;;;;5017123;28;20185;-82
2023/08/21 11:16:35;;;;;;;7.15;2.00;;;27.40;1.00;;;;;;5017178;28;20183;-82
2023/08/21 11:19:07;;;;;;;6.25;2.30;;;27.50;1.00;;;;;;5017212;28;20646;-82
2023/08/21 11:21:33;;;;;;;4.88;2.03;;;27.60;1.00;;;;;;5016741;28;20183;-81
2023/08/21 11:23:58;;;;;;;5.53;2.47;;;27.70;1.00;;;;;;5017171;28;20206;-81
2023/08/21 11:26:25;;;;;;;3.28;1.95;;;27.90;1.00;;;;;;5035014;28;20175;-81
2023/08/21 11:28:51;;;;;;;4.45;1.88;;;27.70;1.00;;;;;;5016929;28;20199;-81
2023/08/21 11:31:17;;;;;;;1.95;1.67;;;27.50;1.00;;;;;;5034333;28;20605;-83
2023/08/21 11:33:49;;;;;;;4.03;1.92;;;27.30;1.00;;;;;;5016960;28;20183;-81
2023/08/21 11:36:15;;;;;;;3.38;1.60;;;27.10;1.00;;;;;;5034485;28;20243;-82
2023/08/21 11:38:41;;;;;;;4.18;1.30;;;27.10;1.00;;;;;;5035000;28;20222;-81
2023/08/21 11:41:07;;;;;;;5.03;1.70;;;27.10;1.00;;;;;;5016984;28;20357;-81
2023/08/21 11:43:36;;;;;;;4.53;1.58;;;27.00;1.00;;;;;;5036332;28;20218;-82
2023/08/21 11:46:06;;;;;;;2.85;1.50;;;26.80;1.00;;;;;;5022211;28;20190;-82
2023/08/21 11:48:32;;;;;;;6.28;1.63;;;26.50;1.00;;;;;;5021112;28;20206;-81
2023/08/21 11:50:58;;;;;;;4.28;1.30;;;26.40;1.00;;;;;;5038607;28;20177;-81
2023/08/21 11:53:35;;;;;;;4.88;1.70;;;26.30;1.00;;;;;;5020401;28;20649;-81
2023/08/21 11:56:01;;;;;;;2.97;1.50;;;26.30;1.00;;;;;;5021537;28;20183;-81
2023/08/21 11:58:28;;;;;;;4.22;1.52;;;26.20;1.00;;;;;;5038832;28;20199;-81
2023/08/21 12:00:54;;;;;;;2.75;1.05;;;26.30;1.00;;;;;;5021515;28;20256;-81
2023/08/21 12:03:19;;;;;;;20.60;2.92;;;26.40;1.00;;;;;;5038297;28;20222;-81
2023/08/21 12:05:45;;;;;;;3.03;1.40;;;26.30;1.00;;;;;;5021527;28;20393;-81
2023/08/21 12:08:11;;;;;;;3.67;1.40;;;26.00;1.00;;;;;;5021263;28;20195;-81
2023/08/21 12:10:37;;;;;;;4.32;1.45;;;26.00;1.00;;;;;;5039397;28;20183;-81
2023/08/21 12:13:03;;;;;;;3.03;1.30;;;26.20;1.00;;;;;;5021242;28;20186;-80
2023/08/21 12:15:28;;;;;;;3.97;1.50;;;26.30;1.00;;;;;;5021664;28;20639;-81
2023/08/21 12:17:54;;;;;;;4.95;1.30;;;26.40;1.00;;;;;;5039023;28;20206;-81
2023/08/21 12:20:20;;;;;;;3.95;1.33;;;26.20;1.00;;;;;;5020939;28;20238;-81
2023/08/21 12:22:46;;;;;;;3.30;1.40;;;26.20;1.00;;;;;;5020735;28;20297;-81
2023/08/21 12:25:13;;;;;;;4.40;1.27;;;26.30;1.00;;;;;;5020405;28;20237;-82
2023/08/21 12:27:38;;;;;;;3.25;1.48;;;26.20;1.00;;;;;;5020870;28;20201;-81
2023/08/21 12:30:05;;;;;;;2.83;1.38;;;26.10;1.00;;;;;;5020807;28;20179;-81
2023/08/21 12:32:30;;;;;;;5.63;1.30;;;26.20;1.00;;;;;;5021525;28;20183;-81
2023/08/21 12:34:56;;;;;;;3.53;1.48;;;26.30;1.00;;;;;;5020530;28;20531;-81
2023/08/21 12:37:22;;;;;;;2.83;1.35;;;26.60;1.00;;;;;;5022092;28;20175;-82
2023/08/21 12:39:47;;;;;;;2.88;1.23;;;26.80;1.00;;;;;;5021779;28;20218;-81
2023/08/21 12:42:13;;;;;;;3.03;1.27;;;27.00;1.00;;;;;;5038771;28;20201;-82
2023/08/21 12:44:39;;;;;;;3.58;1.40;;;26.70;1.00;;;;;;5039245;28;20629;-81
2023/08/21 12:47:04;;;;;;;3.42;1.45;;;26.70;1.00;;;;;;5020739;28;20207;-81
2023/08/21 12:49:30;;;;;;;2.58;1.30;;;26.80;1.00;;;;;;5038671;28;20219;-81
2023/08/21 12:51:55;;;;;;;3.50;1.50;;;26.80;1.00;;;;;;5020832;28;20175;-82